Time;durP1;ratioP1;P1;durP2;ratioP2;P2;SDS_P1;SDS_P2;PMS_P1;PMS_P2;Temp;Humidity;BMP_temperature;BMP_pressure;BME280_temperature;BME280_humidity;BME280_pressure;Samples;Min_cycle;Max_cycle;Signal;HPM_P1;HPM_P2
2020/12/06 00:02:09;;;;;;;30.27;18.25;;;;;;;3.48;87.86;98907.72;5046970;28;20045;-77
2020/12/06 00:04:35;;;;;;;32.08;18.52;;;;;;;3.50;87.25;98916.34;5045284;28;20051;-76
2020/12/06 00:07:04;;;;;;;30.50;18.70;;;;;;;3.46;87.40;98912.19;5042493;28;20057;-76
2020/12/06 00:09:31;;;;;;;31.40;18.52;;;;;;;3.42;87.68;98892.28;5049865;28;20059;-76
2020/12/06 00:11:58;;;;;;;32.55;19.10;;;;;;;3.41;88.05;98877.50;5048050;28;20067;-76
2020/12/06 00:14:25;;;;;;;34.05;20.08;;;;;;;3.39;88.29;98868.88;5043950;28;20459;-75
2020/12/06 00:16:51;;;;;;;33.50;19.30;;;;;;;3.34;88.29;98876.03;5043398;28;20051;-76
2020/12/06 00:19:18;;;;;;;34.25;20.05;;;;;;;3.34;88.62;98876.91;5047879;28;20053;-76
2020/12/06 00:21:45;;;;;;;33.30;20.15;;;;;;;3.31;88.83;98878.78;5042123;28;20049;-76
2020/12/06 00:24:12;;;;;;;36.80;21.83;;;;;;;3.28;89.05;98878.94;5047735;28;20173;-75
2020/12/06 00:26:38;;;;;;;38.97;21.85;;;;;;;3.26;88.99;98867.69;5045943;28;20045;-76
2020/12/06 00:29:05;;;;;;;37.67;21.08;;;;;;;3.28;88.93;98851.00;5043768;28;20037;-77
2020/12/06 00:31:32;;;;;;;35.35;20.80;;;;;;;3.28;88.87;98837.94;5045282;28;20049;-77
2020/12/06 00:33:58;;;;;;;34.90;20.85;;;;;;;3.26;89.17;98828.44;5047448;28;20144;-77
2020/12/06 00:36:25;;;;;;;37.25;21.38;;;;;;;3.22;89.15;98835.56;5051231;28;20492;-79
2020/12/06 00:38:51;;;;;;;37.38;21.63;;;;;;;3.20;89.69;98855.69;5046464;28;20404;-78
2020/12/06 00:41:19;;;;;;;37.35;21.67;;;;;;;3.25;89.80;98860.75;5042037;28;20492;-76
2020/12/06 00:43:48;;;;;;;35.15;20.73;;;;;;;3.29;88.98;98860.56;5047469;28;20045;-77
2020/12/06 00:46:20;;;;;;;37.25;21.73;;;;;;;3.28;89.48;98856.25;5042709;28;20752;-75
2020/12/06 00:48:47;;;;;;;39.17;22.85;;;;;;;3.27;89.40;98866.78;5045293;28;20045;-76
2020/12/06 00:51:16;;;;;;;37.33;21.45;;;;;;;3.25;89.49;98863.38;5046517;28;20055;-78
2020/12/06 00:53:43;;;;;;;38.45;21.83;;;;;;;3.24;89.36;98869.50;5047391;28;20060;-77
2020/12/06 00:56:19;;;;;;;39.67;21.73;;;;;;;3.25;89.29;98873.81;5051083;28;20055;-76
2020/12/06 00:58:47;;;;;;;37.00;21.13;;;;;;;3.25;90.19;98874.69;5048211;28;20046;-79
2020/12/06 01:01:15;;;;;;;36.83;21.08;;;;;;;3.26;89.85;98851.97;5051862;28;20059;-77
2020/12/06 01:03:41;;;;;;;39.63;21.83;;;;;;;3.28;90.21;98858.00;5052103;28;20091;-77
2020/12/06 01:06:12;;;;;;;36.92;21.48;;;;;;;3.29;90.43;98880.63;5052263;28;20106;-75
2020/12/06 01:08:38;;;;;;;34.67;20.08;;;;;;;3.33;90.00;98895.28;5047176;28;20048;-77
2020/12/06 01:11:05;;;;;;;37.70;21.63;;;;;;;3.32;90.37;98883.09;5042836;28;20128;-77
2020/12/06 01:13:32;;;;;;;40.72;22.17;;;;;;;3.32;89.91;98881.34;5045901;28;20111;-77
2020/12/06 01:15:59;;;;;;;35.15;20.85;;;;;;;3.31;89.65;98870.94;5040717;28;20049;-77
2020/12/06 01:18:27;;;;;;;35.17;21.05;;;;;;;3.34;90.22;98862.97;5040396;28;20143;-78
2020/12/06 01:20:54;;;;;;;35.50;19.80;;;;;;;3.32;89.80;98856.94;5037462;28;20045;-77
2020/12/06 01:23:22;;;;;;;36.28;20.95;;;;;;;3.32;90.03;98859.56;5044227;28;20041;-75
2020/12/06 01:25:49;;;;;;;35.80;20.98;;;;;;;3.34;89.93;98863.81;5041808;28;20056;-77
2020/12/06 01:28:16;;;;;;;34.50;21.23;;;;;;;3.36;90.33;98863.75;5042459;28;20475;-77
2020/12/06 01:30:42;;;;;;;37.33;21.98;;;;;;;3.37;90.17;98855.00;5047645;28;20048;-77
2020/12/06 01:33:09;;;;;;;34.72;21.10;;;;;;;3.33;89.52;98832.47;5049231;28;20060;-75
2020/12/06 01:35:36;;;;;;;34.75;20.55;;;;;;;3.32;89.24;98830.78;5043525;28;20072;-77
2020/12/06 01:38:03;;;;;;;33.47;19.85;;;;;;;3.33;89.63;98829.88;5048660;28;20046;-78
2020/12/06 01:40:29;;;;;;;37.45;21.77;;;;;;;3.34;89.77;98839.41;5048850;28;20681;-76
2020/12/06 01:42:56;;;;;;;35.35;20.65;;;;;;;3.35;90.03;98822.81;5061860;28;20041;-74
2020/12/06 01:45:23;;;;;;;32.53;19.63;;;;;;;3.30;89.98;98814.31;5048962;28;20052;-76
2020/12/06 01:47:49;;;;;;;34.10;19.65;;;;;;;3.34;89.55;98808.88;5049538;28;20046;-78
2020/12/06 01:50:18;;;;;;;32.65;19.42;;;;;;;3.37;89.22;98813.97;5045089;28;20132;-76
2020/12/06 01:52:46;;;;;;;32.30;20.02;;;;;;;3.39;89.06;98804.31;5040774;28;20052;-76
2020/12/06 01:55:13;;;;;;;34.10;19.00;;;;;;;3.38;89.03;98804.38;5042723;28;20049;-76
2020/12/06 01:57:39;;;;;;;35.00;19.67;;;;;;;3.33;89.06;98795.84;5045585;28;20124;-78
2020/12/06 02:00:07;;;;;;;31.00;19.17;;;;;;;3.35;89.15;98787.03;5042797;28;20045;-78
2020/12/06 02:02:34;;;;;;;31.35;18.67;;;;;;;3.38;88.66;98779.06;5041475;28;20057;-77
2020/12/06 02:05:05;;;;;;;32.33;18.58;;;;;;;3.36;89.09;98773.03;5039858;28;20045;-75
2020/12/06 02:07:32;;;;;;;32.30;19.08;;;;;;;3.37;88.72;98785.19;5043882;28;20049;-77
2020/12/06 02:09:59;;;;;;;32.33;18.88;;;;;;;3.36;88.69;98804.44;5046604;28;20579;-78
2020/12/06 02:12:26;;;;;;;33.13;19.55;;;;;;;3.36;88.93;98820.13;5046108;28;20687;-76
2020/12/06 02:14:53;;;;;;;30.70;17.73;;;;;;;3.41;88.67;98844.34;5040395;28;20053;-76
2020/12/06 02:17:19;;;;;;;33.53;19.10;;;;;;;3.40;89.01;98840.03;5044829;28;20041;-76
2020/12/06 02:19:45;;;;;;;31.20;18.55;;;;;;;3.41;89.26;98844.34;5052688;28;20063;-75
2020/12/06 02:22:12;;;;;;;30.80;18.55;;;;;;;3.45;89.09;98851.16;5057986;28;20037;-78
2020/12/06 02:24:38;;;;;;;30.73;18.02;;;;;;;3.44;88.74;98838.97;5071377;28;20060;-81
2020/12/06 02:27:05;;;;;;;32.65;18.92;;;;;;;3.44;88.89;98844.22;5058296;28;20048;-76
2020/12/06 02:29:31;;;;;;;31.77;18.23;;;;;;;3.48;88.83;98842.28;5043720;28;20055;-76
2020/12/06 02:31:58;;;;;;;30.52;18.00;;;;;;;3.48;88.98;98830.06;5044048;28;20144;-76
2020/12/06 02:34:25;;;;;;;31.65;18.23;;;;;;;3.51;88.92;98824.69;5043863;28;20055;-77
2020/12/06 02:36:51;;;;;;;31.35;18.00;;;;;;;3.51;89.03;98816.00;5042475;28;20053;-76
2020/12/06 02:39:17;;;;;;;31.73;18.85;;;;;;;3.54;88.64;98802.78;5037876;28;20053;-77
2020/12/06 02:41:45;;;;;;;30.90;18.63;;;;;;;3.57;89.02;98796.56;5041502;28;20059;-77
2020/12/06 02:44:13;;;;;;;30.67;17.88;;;;;;;3.59;88.94;98785.13;5043341;28;20041;-77
2020/12/06 02:46:41;;;;;;;29.30;18.13;;;;;;;3.64;88.97;98769.19;5038531;28;20079;-76
2020/12/06 02:49:08;;;;;;;27.25;15.88;;;;;;;3.66;88.99;98768.22;5044668;28;20045;-76
2020/12/06 02:51:35;;;;;;;29.20;17.48;;;;;;;3.68;88.72;98769.00;5043435;28;20052;-76
2020/12/06 02:54:01;;;;;;;28.35;17.23;;;;;;;3.69;89.12;98782.94;5042345;28;20056;-79
2020/12/06 02:56:28;;;;;;;27.20;16.67;;;;;;;3.69;88.22;98793.41;5047160;28;20136;-76
2020/12/06 02:58:54;;;;;;;29.13;17.60;;;;;;;3.70;88.81;98806.44;5043358;28;20049;-79
2020/12/06 03:01:21;;;;;;;29.70;16.92;;;;;;;3.69;88.29;98802.09;5047235;28;20769;-76
2020/12/06 03:03:47;;;;;;;28.05;16.67;;;;;;;3.72;87.95;98793.28;5048530;28;20048;-77
2020/12/06 03:06:14;;;;;;;27.25;17.00;;;;;;;3.70;87.75;98795.09;5047519;28;20048;-75
2020/12/06 03:08:40;;;;;;;25.73;15.82;;;;;;;3.70;88.09;98784.63;5059760;28;20485;-76
2020/12/06 03:11:10;;;;;;;29.63;17.00;;;;;;;3.73;88.06;98787.97;5046489;28;20063;-76
2020/12/06 03:13:36;;;;;;;27.45;16.80;;;;;;;3.73;88.21;98795.81;5050376;28;20065;-77
2020/12/06 03:16:03;;;;;;;29.17;17.17;;;;;;;3.77;88.78;98797.41;5038508;28;20053;-77
2020/12/06 03:18:31;;;;;;;28.75;16.98;;;;;;;3.78;88.27;98790.34;5047936;28;20063;-76
2020/12/06 03:20:57;;;;;;;26.98;16.52;;;;;;;3.76;88.13;98781.75;5051011;28;20381;-75
2020/12/06 03:23:24;;;;;;;28.85;17.15;;;;;;;3.77;88.46;98781.69;5047059;28;20088;-80
2020/12/06 03:25:51;;;;;;;30.17;17.45;;;;;;;3.75;88.16;98777.44;5042036;28;20518;-76
2020/12/06 03:28:17;;;;;;;26.90;16.48;;;;;;;3.77;88.31;98762.50;5046727;28;20045;-76
2020/12/06 03:30:44;;;;;;;28.95;17.17;;;;;;;3.77;87.84;98741.56;5041747;28;20049;-77
2020/12/06 03:33:10;;;;;;;27.27;16.80;;;;;;;3.74;88.18;98734.69;5040808;28;20041;-76
2020/12/06 03:35:36;;;;;;;30.30;17.00;;;;;;;3.70;88.56;98734.91;5040136;28;20037;-76
2020/12/06 03:38:03;;;;;;;27.55;16.60;;;;;;;3.69;88.90;98727.97;5044077;28;20045;-77
2020/12/06 03:40:29;;;;;;;27.17;16.38;;;;;;;3.68;89.18;98740.19;5047647;28;20053;-77
2020/12/06 03:42:56;;;;;;;28.58;17.75;;;;;;;3.65;89.31;98736.88;5041326;28;20057;-77
2020/12/06 03:45:22;;;;;;;31.15;17.20;;;;;;;3.66;89.32;98749.88;5048563;28;20049;-76
2020/12/06 03:47:48;;;;;;;31.08;17.35;;;;;;;3.68;90.01;98753.28;5042249;28;20048;-79
2020/12/06 03:50:15;;;;;;;30.55;17.92;;;;;;;3.68;89.53;98747.19;5045895;28;20104;-77
2020/12/06 03:52:42;;;;;;;30.27;17.98;;;;;;;3.65;89.86;98750.81;5041230;28;20078;-79
2020/12/06 03:55:08;;;;;;;30.27;17.92;;;;;;;3.64;90.60;98751.72;5041041;28;20047;-78
2020/12/06 03:57:34;;;;;;;31.40;17.83;;;;;;;3.63;90.22;98752.63;5047563;28;20051;-75
2020/12/06 04:00:01;;;;;;;30.70;18.13;;;;;;;3.66;90.35;98749.03;5044380;28;20106;-76
2020/12/06 04:02:28;;;;;;;30.75;18.55;;;;;;;3.63;90.49;98754.41;5058693;28;20047;-76
2020/12/06 04:04:55;;;;;;;30.98;18.45;;;;;;;3.57;90.66;98745.06;5043923;28;20045;-76
2020/12/06 04:07:21;;;;;;;29.95;17.60;;;;;;;3.58;90.74;98752.00;5040687;28;20049;-79
2020/12/06 04:09:47;;;;;;;29.83;18.30;;;;;;;3.60;90.80;98760.66;5048328;28;20128;-76
2020/12/06 04:12:13;;;;;;;31.30;18.67;;;;;;;3.57;91.18;98759.94;5043454;28;20156;-76
2020/12/06 04:14:40;;;;;;;33.65;18.77;;;;;;;3.64;91.11;98758.72;5044019;28;20041;-77
2020/12/06 04:17:06;;;;;;;32.65;18.58;;;;;;;3.64;91.58;98771.81;5042715;28;20049;-76
2020/12/06 04:19:33;;;;;;;31.85;18.73;;;;;;;3.65;91.16;98763.03;5050705;28;20052;-76
2020/12/06 04:21:59;;;;;;;32.83;17.73;;;;;;;3.62;91.21;98756.16;5041684;28;20049;-77
2020/12/06 04:24:26;;;;;;;30.15;17.92;;;;;;;3.64;90.85;98751.72;5042141;28;20056;-78
2020/12/06 04:26:52;;;;;;;30.88;18.23;;;;;;;3.66;91.07;98757.75;5045516;28;20140;-76
2020/12/06 04:29:18;;;;;;;32.20;18.77;;;;;;;3.64;91.13;98761.34;5043994;28;20484;-77
2020/12/06 04:31:45;;;;;;;32.95;18.05;;;;;;;3.63;91.09;98760.50;5048353;28;20411;-77
2020/12/06 04:34:11;;;;;;;29.52;17.98;;;;;;;3.62;91.00;98779.72;5043966;28;20687;-75
2020/12/06 04:36:37;;;;;;;30.92;17.77;;;;;;;3.65;91.32;98769.13;5051128;28;20045;-77
2020/12/06 04:39:04;;;;;;;28.10;17.52;;;;;;;3.66;91.35;98775.22;5044890;28;20087;-78
2020/12/06 04:41:30;;;;;;;32.88;18.48;;;;;;;3.67;91.63;98774.28;5042979;28;20045;-76
2020/12/06 04:43:57;;;;;;;29.38;17.42;;;;;;;3.65;91.57;98771.75;5040854;28;20076;-75
2020/12/06 04:46:26;;;;;;;32.58;19.05;;;;;;;3.67;91.89;98772.53;5041327;28;20171;-76
2020/12/06 04:49:16;;;;;;;29.80;17.83;;;;;;;3.68;92.08;98755.06;5042789;28;20064;-76
2020/12/06 04:51:44;;;;;;;29.92;18.42;;;;;;;3.64;91.86;98751.72;5045814;28;20064;-78
2020/12/06 04:54:11;;;;;;;30.98;17.70;;;;;;;3.60;91.97;98760.66;5039609;28;20481;-75
2020/12/06 04:56:38;;;;;;;31.00;18.48;;;;;;;3.59;92.76;98766.81;5042803;28;20047;-79
2020/12/06 04:59:06;;;;;;;29.40;17.17;;;;;;;3.62;92.72;98766.63;5042075;28;20500;-76
2020/12/06 05:01:34;;;;;;;29.77;17.60;;;;;;;3.62;92.38;98764.03;5039806;28;20047;-77
2020/12/06 05:04:14;;;;;;;35.38;18.35;;;;;;;3.59;92.31;98758.09;5040951;28;20045;-77
2020/12/06 05:06:42;;;;;;;30.65;18.00;;;;;;;3.60;92.84;98750.19;5035572;28;20045;-76
2020/12/06 05:09:10;;;;;;;31.80;17.88;;;;;;;3.62;93.04;98740.47;5040020;28;20512;-77
2020/12/06 05:11:38;;;;;;;29.75;16.80;;;;;;;3.65;93.23;98742.09;5048193;28;20041;-76
2020/12/06 05:14:07;;;;;;;29.25;17.58;;;;;;;3.65;92.58;98731.63;5040929;28;20045;-78
2020/12/06 05:16:35;;;;;;;31.17;17.63;;;;;;;3.63;93.20;98729.06;5042965;28;20050;-79
2020/12/06 05:19:04;;;;;;;28.95;17.33;;;;;;;3.59;92.99;98724.06;5040534;28;20131;-78
2020/12/06 05:21:38;;;;;;;31.55;17.67;;;;;;;3.62;92.60;98722.13;5046516;28;20492;-77
2020/12/06 05:24:05;;;;;;;32.95;18.83;;;;;;;3.62;93.08;98744.88;5047619;28;20144;-77
2020/12/06 05:26:32;;;;;;;31.15;18.80;;;;;;;3.60;92.79;98741.47;5042290;28;20048;-76
2020/12/06 05:28:59;;;;;;;30.63;17.38;;;;;;;3.64;92.95;98728.16;5047896;28;20040;-79
2020/12/06 05:31:27;;;;;;;30.35;17.77;;;;;;;3.66;92.43;98720.25;5050754;28;20388;-76
2020/12/06 05:33:54;;;;;;;29.90;17.92;;;;;;;3.67;93.00;98722.78;5051580;28;20047;-76
2020/12/06 05:36:21;;;;;;;29.77;18.02;;;;;;;3.69;92.55;98726.19;5049791;28;20049;-77
2020/12/06 05:38:48;;;;;;;32.42;18.10;;;;;;;3.70;92.58;98734.91;5047524;28;20507;-77
2020/12/06 05:41:15;;;;;;;31.65;18.90;;;;;;;3.69;93.79;98747.13;5049568;28;20053;-77
2020/12/06 05:43:41;;;;;;;33.38;19.80;;;;;;;3.71;93.21;98742.69;5045743;28;20045;-78
2020/12/06 05:46:10;;;;;;;32.72;18.95;;;;;;;3.70;92.98;98727.91;5035728;28;20140;-76
2020/12/06 05:48:37;;;;;;;31.77;18.85;;;;;;;3.70;92.80;98725.28;5042162;28;20049;-76
2020/12/06 05:51:05;;;;;;;32.10;18.73;;;;;;;3.68;93.13;98723.66;5043258;28;20063;-77
2020/12/06 05:53:32;;;;;;;31.77;19.02;;;;;;;3.67;93.23;98714.94;5043106;28;20401;-75
2020/12/06 05:56:11;;;;;;;33.67;19.42;;;;;;;3.68;93.79;98705.31;5045323;28;20792;-76
2020/12/06 05:58:41;;;;;;;36.50;20.48;;;;;;;3.67;93.21;98703.63;5041363;28;20056;-78
2020/12/06 06:01:09;;;;;;;35.83;19.77;;;;;;;3.65;93.52;98711.53;5041920;28;20064;-78
2020/12/06 06:03:37;;;;;;;33.95;19.83;;;;;;;3.62;93.13;98705.63;5036897;28;20393;-75
2020/12/06 06:06:05;;;;;;;35.30;20.42;;;;;;;3.59;93.29;98703.97;5044352;28;20365;-77
2020/12/06 06:08:35;;;;;;;35.88;21.83;;;;;;;3.60;93.97;98703.06;5037293;28;20056;-76
2020/12/06 06:11:04;;;;;;;36.45;22.13;;;;;;;3.62;94.00;98698.59;5041999;28;20041;-78
2020/12/06 06:13:47;;;;;;;41.70;22.80;;;;;;;3.63;94.09;98691.59;5045466;28;20059;-77
2020/12/06 06:16:15;;;;;;;41.05;22.63;;;;;;;3.65;94.22;98692.38;5043310;28;20108;-75
2020/12/06 06:18:45;;;;;;;40.30;22.92;;;;;;;3.63;94.10;98686.34;5045966;28;20060;-79
2020/12/06 06:21:11;;;;;;;41.75;23.70;;;;;;;3.59;94.21;98680.44;5045706;28;20040;-77
2020/12/06 06:23:38;;;;;;;41.80;24.00;;;;;;;3.62;93.84;98685.50;5046675;28;20041;-76
2020/12/06 06:26:05;;;;;;;43.08;23.23;;;;;;;3.63;94.38;98692.44;5055347;28;20072;-75
2020/12/06 06:28:31;;;;;;;44.50;24.90;;;;;;;3.65;94.16;98693.22;5056567;28;20051;-77
2020/12/06 06:31:00;;;;;;;43.97;25.08;;;;;;;3.69;93.82;98691.31;5049750;28;20058;-76
2020/12/06 06:33:28;;;;;;;43.20;24.58;;;;;;;3.64;93.78;98688.91;5050603;28;20981;-75
2020/12/06 06:35:56;;;;;;;45.17;24.33;;;;;;;3.68;94.08;98692.22;5050146;28;20046;-76
2020/12/06 06:38:39;;;;;;;44.47;24.33;;;;;;;3.71;93.65;98699.94;5053061;28;20080;-78
2020/12/06 06:41:07;;;;;;;42.45;24.35;;;;;;;3.70;93.59;98686.00;5049790;28;20118;-76
2020/12/06 06:43:34;;;;;;;42.30;24.70;;;;;;;3.69;93.83;98675.59;5052090;28;26489;-77
2020/12/06 06:46:12;;;;;;;43.65;24.83;;;;;;;3.69;93.34;98676.47;5051717;28;20041;-77
2020/12/06 06:48:39;;;;;;;42.42;24.55;;;;;;;3.65;93.94;98669.66;5045613;28;20049;-78
2020/12/06 06:51:06;;;;;;;42.55;24.55;;;;;;;3.65;93.68;98677.50;5042479;28;20077;-77
2020/12/06 06:53:33;;;;;;;42.13;23.55;;;;;;;3.63;93.89;98687.19;5043475;28;20056;-78
2020/12/06 06:56:01;;;;;;;42.28;23.35;;;;;;;3.63;93.85;98702.91;5044447;28;20468;-79
2020/12/06 06:58:30;;;;;;;45.60;24.98;;;;;;;3.60;94.51;98712.69;5051561;28;20118;-75
2020/12/06 07:01:17;;;;;;;41.65;22.95;;;;;;;3.63;93.97;98726.47;5039188;28;20057;-79
2020/12/06 07:03:50;;;;;;;42.22;24.13;;;;;;;3.68;93.79;98736.72;5052222;28;20047;-77
2020/12/06 07:06:46;;;;;;;40.92;23.02;;;;;;;3.69;94.41;98748.91;5048386;28;20041;-76
2020/12/06 07:09:22;;;;;;;39.53;22.40;;;;;;;3.72;93.72;98754.00;5043172;28;20037;-78
2020/12/06 07:11:49;;;;;;;41.40;23.00;;;;;;;3.70;93.59;98746.22;5053729;28;20059;-75
2020/12/06 07:14:16;;;;;;;40.00;22.80;;;;;;;3.69;93.63;98751.53;5051485;28;20052;-76
2020/12/06 07:16:42;;;;;;;43.78;24.02;;;;;;;3.72;93.78;98752.25;5051121;28;20037;-79
2020/12/06 07:19:09;;;;;;;41.95;23.75;;;;;;;3.73;93.30;98748.69;5069369;28;20045;-75
2020/12/06 07:21:36;;;;;;;37.35;21.98;;;;;;;3.71;93.26;98747.91;5056732;28;20060;-76
2020/12/06 07:24:04;;;;;;;38.50;22.08;;;;;;;3.68;93.63;98750.66;5043301;28;20045;-76
2020/12/06 07:26:31;;;;;;;41.13;22.88;;;;;;;3.73;93.21;98768.78;5049382;28;20047;-75
2020/12/06 07:28:58;;;;;;;39.70;22.70;;;;;;;3.77;93.85;98765.97;5050652;28;20086;-78
2020/12/06 07:31:26;;;;;;;36.78;21.15;;;;;;;3.78;93.59;98767.66;5058308;28;20048;-78
2020/12/06 07:33:53;;;;;;;36.72;20.80;;;;;;;3.76;93.31;98753.81;5059682;28;20092;-78
2020/12/06 07:36:19;;;;;;;37.63;22.48;;;;;;;3.76;93.66;98748.56;5061628;28;20037;-79
2020/12/06 07:38:46;;;;;;;37.45;21.55;;;;;;;3.78;93.30;98744.09;5066979;28;20089;-78
2020/12/06 07:41:13;;;;;;;38.03;21.30;;;;;;;3.80;93.42;98741.41;5050079;28;20503;-76
2020/12/06 07:43:39;;;;;;;35.90;21.55;;;;;;;3.82;93.09;98732.56;5052859;28;20044;-76
2020/12/06 07:46:15;;;;;;;36.83;20.80;;;;;;;3.80;92.70;98734.41;5052393;28;20051;-77
2020/12/06 07:48:45;;;;;;;37.67;21.42;;;;;;;3.78;92.95;98748.47;5044218;28;20048;-76
2020/12/06 07:51:12;;;;;;;35.13;20.60;;;;;;;3.77;93.00;98741.56;5047834;28;20071;-76
2020/12/06 07:53:49;;;;;;;36.75;20.88;;;;;;;3.82;93.07;98750.03;5042659;28;20049;-77
2020/12/06 07:56:24;;;;;;;37.97;21.63;;;;;;;3.84;92.43;98750.81;5041839;28;20064;-76
2020/12/06 07:59:07;;;;;;;37.55;21.13;;;;;;;3.87;93.13;98748.91;5041466;28;21520;-77
2020/12/06 08:01:34;;;;;;;38.58;21.08;;;;;;;3.90;92.99;98762.78;5044713;28;20744;-77
2020/12/06 08:04:21;;;;;;;34.85;21.45;;;;;;;3.91;93.20;98767.97;5048165;28;20048;-76
2020/12/06 08:06:50;;;;;;;34.92;20.27;;;;;;;3.94;93.47;98754.69;5042524;28;20052;-77
2020/12/06 08:09:18;;;;;;;37.22;20.50;;;;;;;3.95;92.40;98750.31;5041003;28;20049;-79
2020/12/06 08:11:51;;;;;;;34.10;20.50;;;;;;;3.92;92.89;98756.56;5040844;28;20053;-77
2020/12/06 08:14:21;;;;;;;38.70;21.35;;;;;;;3.90;93.18;98755.78;5041972;28;20124;-76
2020/12/06 08:16:58;;;;;;;35.92;21.35;;;;;;;3.92;93.07;98747.88;5042407;28;20487;-78
2020/12/06 08:19:26;;;;;;;37.75;21.73;;;;;;;3.93;93.08;98741.72;5042420;28;20044;-76
2020/12/06 08:22:01;;;;;;;32.40;20.23;;;;;;;3.97;92.58;98748.47;5043914;28;20477;-74
2020/12/06 08:24:29;;;;;;;32.63;19.88;;;;;;;4.01;92.26;98744.81;5045096;28;20036;-76
2020/12/06 08:26:58;;;;;;;31.92;19.77;;;;;;;4.03;92.60;98735.13;5039324;28;20053;-76
2020/12/06 08:29:39;;;;;;;33.45;20.00;;;;;;;4.04;91.84;98734.19;5047629;28;20644;-76
2020/12/06 08:32:06;;;;;;;32.60;19.85;;;;;;;4.04;91.83;98735.03;5042630;28;20128;-79
2020/12/06 08:34:33;;;;;;;37.65;21.02;;;;;;;4.03;91.62;98737.72;5042796;28;20045;-76
2020/12/06 08:37:17;;;;;;;32.53;19.92;;;;;;;4.02;91.22;98738.66;5047857;28;20122;-76
2020/12/06 08:39:45;;;;;;;36.88;20.77;;;;;;;4.02;91.75;98736.88;5038203;28;20067;-76
2020/12/06 08:42:19;;;;;;;32.22;20.10;;;;;;;4.05;91.77;98733.28;5045066;28;20049;-77
2020/12/06 08:44:54;;;;;;;39.65;21.42;;;;;;;4.05;92.21;98730.66;5048094;28;20055;-76
2020/12/06 08:47:21;;;;;;;36.80;20.35;;;;;;;4.11;91.99;98725.97;5039829;28;20057;-77
2020/12/06 08:50:32;;;;;;;35.97;20.83;;;;;;;4.23;93.24;98742.88;5046361;28;20389;-77
2020/12/06 08:52:59;;;;;;;34.97;20.23;;;;;;;4.20;92.81;98740.41;5030600;28;21557;-77
2020/12/06 08:55:29;;;;;;;33.25;19.45;;;;;;;4.14;92.09;98748.53;5046770;28;20480;-78
2020/12/06 08:57:57;;;;;;;30.15;19.00;;;;;;;4.11;91.84;98751.31;5044939;28;20055;-77
2020/12/06 09:00:28;;;;;;;32.35;19.75;;;;;;;4.11;91.22;98757.38;5039141;28;20435;-75
2020/12/06 09:02:59;;;;;;;34.67;20.13;;;;;;;4.16;92.26;98757.19;5043503;28;20400;-76
2020/12/06 09:05:26;;;;;;;36.58;21.77;;;;;;;4.28;93.89;98751.34;5048816;28;20124;-76
2020/12/06 09:07:52;;;;;;;36.97;20.50;;;;;;;4.43;94.09;98752.41;5041875;28;20056;-75
2020/12/06 09:10:18;;;;;;;37.65;20.88;;;;;;;4.55;93.91;98749.19;5044392;28;20076;-75
2020/12/06 09:12:45;;;;;;;33.00;19.77;;;;;;;4.62;93.95;98768.09;5043111;28;20128;-75
2020/12/06 09:15:13;;;;;;;37.88;21.15;;;;;;;4.68;92.79;98768.66;5036775;28;20155;-78
2020/12/06 09:17:39;;;;;;;35.08;21.13;;;;;;;4.74;93.07;98765.72;5042285;28;20473;-78
2020/12/06 09:20:06;;;;;;;33.05;20.15;;;;;;;4.63;91.55;98765.41;5045881;28;20052;-77
2020/12/06 09:22:32;;;;;;;39.88;22.38;;;;;;;4.63;92.12;98770.63;5045040;28;20056;-76
2020/12/06 09:24:59;;;;;;;34.17;20.23;;;;;;;4.68;91.84;98773.03;5045402;28;20053;-78
2020/12/06 09:27:25;;;;;;;33.90;20.02;;;;;;;4.63;90.54;98762.78;5050672;28;20060;-79
2020/12/06 09:29:52;;;;;;;28.98;18.55;;;;;;;4.60;90.54;98762.91;5058745;28;20051;-78
2020/12/06 09:32:18;;;;;;;30.30;18.83;;;;;;;4.53;90.13;98748.44;5064206;28;20087;-77
2020/12/06 09:34:45;;;;;;;30.20;19.50;;;;;;;4.54;89.29;98747.50;5044797;28;20061;-79
2020/12/06 09:37:11;;;;;;;32.85;19.60;;;;;;;4.52;89.79;98741.47;5045179;28;20399;-77
2020/12/06 09:39:37;;;;;;;31.92;19.58;;;;;;;4.52;89.23;98737.09;5045274;28;20057;-75
2020/12/06 09:42:04;;;;;;;32.08;20.00;;;;;;;4.54;88.94;98742.25;5046086;28;20136;-75
2020/12/06 09:44:30;;;;;;;32.15;19.98;;;;;;;4.54;89.25;98750.97;5042254;28;20044;-75
2020/12/06 09:46:56;;;;;;;32.58;20.23;;;;;;;4.50;89.69;98744.19;5043058;28;20488;-77
2020/12/06 09:49:23;;;;;;;32.28;19.52;;;;;;;4.46;89.89;98733.91;5042670;28;20048;-76
2020/12/06 09:51:50;;;;;;;31.30;19.27;;;;;;;4.49;89.26;98736.38;5038323;28;20377;-76
2020/12/06 09:54:16;;;;;;;35.55;20.65;;;;;;;4.49;89.02;98733.75;5041231;28;20053;-77
2020/12/06 09:56:43;;;;;;;31.85;19.75;;;;;;;4.49;89.36;98720.66;5039634;28;20051;-79
2020/12/06 09:59:09;;;;;;;33.88;20.73;;;;;;;4.54;89.44;98708.19;5037015;28;20076;-76
2020/12/06 10:01:36;;;;;;;33.90;20.42;;;;;;;4.58;89.13;98726.28;5039781;28;20045;-79
2020/12/06 10:04:03;;;;;;;34.35;20.83;;;;;;;4.50;89.13;98736.31;5041823;28;20037;-75
2020/12/06 10:06:29;;;;;;;35.28;20.83;;;;;;;4.49;89.64;98725.91;5040325;28;20057;-77
2020/12/06 10:08:55;;;;;;;30.85;19.42;;;;;;;4.54;89.66;98723.91;5042980;28;20048;-77
2020/12/06 10:11:23;;;;;;;33.92;19.48;;;;;;;4.59;88.89;98725.38;5049714;28;20471;-76
2020/12/06 10:13:49;;;;;;;30.88;19.75;;;;;;;4.66;88.76;98717.22;5045245;28;20045;-76
2020/12/06 10:16:17;;;;;;;36.58;21.75;;;;;;;4.70;88.75;98705.66;5041372;28;20049;-76
2020/12/06 10:18:44;;;;;;;31.30;19.70;;;;;;;4.77;87.85;98709.66;5045510;28;20103;-75
2020/12/06 10:21:13;;;;;;;34.47;18.92;;;;;;;4.82;87.53;98707.66;5045810;28;20051;-77
2020/12/06 10:23:40;;;;;;;32.97;20.95;;;;;;;4.81;87.44;98696.31;5044862;28;20048;-77
2020/12/06 10:26:06;;;;;;;31.88;19.88;;;;;;;4.87;87.38;98688.16;5049126;28;20049;-75
2020/12/06 10:28:33;;;;;;;29.73;18.98;;;;;;;4.84;86.11;98676.97;5046872;28;20049;-75
2020/12/06 10:30:59;;;;;;;33.22;20.45;;;;;;;4.86;86.97;98667.25;5047327;28;20045;-76
2020/12/06 10:33:25;;;;;;;31.48;19.17;;;;;;;4.88;86.53;98676.69;5042930;28;20080;-76
2020/12/06 10:35:52;;;;;;;33.22;19.95;;;;;;;4.96;86.41;98680.72;5047214;28;20390;-76
2020/12/06 10:38:18;;;;;;;34.40;19.83;;;;;;;5.00;86.32;98696.22;5046334;28;20081;-77
2020/12/06 10:40:45;;;;;;;31.77;19.38;;;;;;;5.04;85.93;98695.13;5054154;28;20063;-76
2020/12/06 10:43:12;;;;;;;35.53;20.15;;;;;;;5.06;86.00;98698.53;5059098;28;20369;-77
2020/12/06 10:45:38;;;;;;;34.75;21.63;;;;;;;5.13;85.82;98714.81;5056777;28;20045;-78
2020/12/06 10:48:05;;;;;;;32.38;20.42;;;;;;;5.17;86.88;98713.72;5049587;28;20045;-77
2020/12/06 10:50:32;;;;;;;37.80;22.10;;;;;;;5.27;86.91;98725.44;5049360;28;20512;-77
2020/12/06 10:52:59;;;;;;;39.33;22.08;;;;;;;5.24;86.36;98700.19;5044902;28;20159;-77
2020/12/06 10:55:25;;;;;;;39.28;22.23;;;;;;;5.29;86.54;98692.09;5042952;28;20052;-78
2020/12/06 10:57:53;;;;;;;38.15;22.20;;;;;;;5.26;86.41;98708.84;5045534;28;20837;-77
2020/12/06 11:00:20;;;;;;;37.53;22.63;;;;;;;5.21;86.78;98702.97;5042810;28;20067;-76
2020/12/06 11:02:47;;;;;;;38.17;22.55;;;;;;;5.18;86.70;98689.19;5039716;28;20041;-77
2020/12/06 11:05:13;;;;;;;38.88;22.35;;;;;;;5.17;87.17;98690.97;5042405;28;20053;-76
2020/12/06 11:07:40;;;;;;;36.58;21.35;;;;;;;5.15;86.76;98703.31;5040433;28;20045;-75
2020/12/06 11:10:06;;;;;;;36.05;21.67;;;;;;;5.11;87.12;98709.63;5048174;28;20346;-76
2020/12/06 11:12:33;;;;;;;38.22;22.20;;;;;;;5.13;87.56;98720.06;5045368;28;20161;-77
2020/12/06 11:14:59;;;;;;;39.90;23.17;;;;;;;5.08;87.64;98699.28;5050518;28;20612;-75
2020/12/06 11:17:30;;;;;;;37.85;21.85;;;;;;;5.10;88.03;98707.94;5043769;28;20041;-77
2020/12/06 11:19:58;;;;;;;41.45;22.95;;;;;;;4.98;87.54;98726.94;5052414;28;20052;-76
2020/12/06 11:22:25;;;;;;;41.30;23.55;;;;;;;4.95;88.37;98734.94;5054583;28;20080;-76
2020/12/06 11:24:52;;;;;;;41.63;24.98;;;;;;;4.98;87.98;98724.31;5040750;28;20042;-77
2020/12/06 11:27:19;;;;;;;42.45;25.17;;;;;;;4.95;88.14;98721.84;5041943;28;20045;-78
2020/12/06 11:29:46;;;;;;;46.58;25.48;;;;;;;4.97;87.99;98727.84;5041107;28;20128;-78